sensor_id;sensor_type;location;lat;lon;timestamp;P1;durP1;ratioP1;P2;durP2;ratioP2
11344;SDS011;5727;42.600;23.028;2023-02-21T00:00:29;17.13;;;10.30;;
11344;SDS011;5727;42.600;23.028;2023-02-21T00:03:15;14.83;;;9.17;;
11344;SDS011;5727;42.600;23.028;2023-02-21T00:05:59;12.87;;;9.20;;
11344;SDS011;5727;42.600;23.028;2023-02-21T00:08:43;12.67;;;8.80;;
11344;SDS011;5727;42.600;23.028;2023-02-21T00:11:26;11.27;;;8.87;;
11344;SDS011;5727;42.600;23.028;2023-02-21T00:14:10;10.53;;;8.77;;
11344;SDS011;5727;42.600;23.028;2023-02-21T00:16:54;14.03;;;9.27;;
11344;SDS011;5727;42.600;23.028;2023-02-21T00:19:40;10.03;;;7.90;;
11344;SDS011;5727;42.600;23.028;2023-02-21T00:22:25;11.47;;;9.33;;
11344;SDS011;5727;42.600;23.028;2023-02-21T00:25:09;10.63;;;9.23;;
11344;SDS011;5727;42.600;23.028;2023-02-21T00:27:52;14.60;;;9.43;;
11344;SDS011;5727;42.600;23.028;2023-02-21T00:30:36;13.70;;;9.57;;
11344;SDS011;5727;42.600;23.028;2023-02-21T00:33:20;14.77;;;8.67;;
11344;SDS011;5727;42.600;23.028;2023-02-21T00:36:06;11.77;;;9.30;;
11344;SDS011;5727;42.600;23.028;2023-02-21T00:38:51;15.87;;;8.73;;
11344;SDS011;5727;42.600;23.028;2023-02-21T00:41:35;13.40;;;10.60;;
11344;SDS011;5727;42.600;23.028;2023-02-21T00:44:19;14.50;;;10.80;;
11344;SDS011;5727;42.600;23.028;2023-02-21T00:47:03;11.63;;;9.80;;
11344;SDS011;5727;42.600;23.028;2023-02-21T00:49:47;15.67;;;10.67;;
11344;SDS011;5727;42.600;23.028;2023-02-21T00:52:32;14.47;;;10.40;;
11344;SDS011;5727;42.600;23.028;2023-02-21T00:55:16;17.67;;;11.47;;
11344;SDS011;5727;42.600;23.028;2023-02-21T00:58:00;15.40;;;10.47;;
11344;SDS011;5727;42.600;23.028;2023-02-21T01:00:44;15.40;;;11.23;;
11344;SDS011;5727;42.600;23.028;2023-02-21T01:03:28;15.10;;;10.47;;
11344;SDS011;5727;42.600;23.028;2023-02-21T01:06:12;16.20;;;10.90;;
11344;SDS011;5727;42.600;23.028;2023-02-21T01:08:57;14.00;;;11.13;;
11344;SDS011;5727;42.600;23.028;2023-02-21T01:11:41;21.80;;;11.57;;
11344;SDS011;5727;42.600;23.028;2023-02-21T01:14:25;18.07;;;11.67;;
11344;SDS011;5727;42.600;23.028;2023-02-21T01:17:09;16.00;;;10.70;;
11344;SDS011;5727;42.600;23.028;2023-02-21T01:19:53;21.43;;;11.20;;
11344;SDS011;5727;42.600;23.028;2023-02-21T01:22:37;18.07;;;10.77;;
11344;SDS011;5727;42.600;23.028;2023-02-21T01:25:23;21.33;;;11.83;;
11344;SDS011;5727;42.600;23.028;2023-02-21T01:28:07;20.30;;;12.10;;
11344;SDS011;5727;42.600;23.028;2023-02-21T01:30:51;22.77;;;12.67;;
11344;SDS011;5727;42.600;23.028;2023-02-21T01:33:36;25.30;;;14.53;;
11344;SDS011;5727;42.600;23.028;2023-02-21T01:36:21;22.83;;;14.80;;
11344;SDS011;5727;42.600;23.028;2023-02-21T01:39:05;23.83;;;14.77;;
11344;SDS011;5727;42.600;23.028;2023-02-21T01:41:51;16.43;;;11.57;;
11344;SDS011;5727;42.600;23.028;2023-02-21T01:44:36;13.40;;;8.53;;
11344;SDS011;5727;42.600;23.028;2023-02-21T01:47:22;15.03;;;10.10;;
11344;SDS011;5727;42.600;23.028;2023-02-21T01:50:08;19.87;;;10.20;;
11344;SDS011;5727;42.600;23.028;2023-02-21T01:52:56;12.97;;;10.60;;
11344;SDS011;5727;42.600;23.028;2023-02-21T01:55:41;15.13;;;11.13;;
11344;SDS011;5727;42.600;23.028;2023-02-21T01:58:28;16.47;;;10.60;;
11344;SDS011;5727;42.600;23.028;2023-02-21T02:01:17;19.27;;;11.30;;
11344;SDS011;5727;42.600;23.028;2023-02-21T02:04:08;15.17;;;10.73;;
11344;SDS011;5727;42.600;23.028;2023-02-21T02:06:52;18.37;;;10.70;;
11344;SDS011;5727;42.600;23.028;2023-02-21T02:09:37;13.33;;;10.37;;
11344;SDS011;5727;42.600;23.028;2023-02-21T02:12:26;13.00;;;10.47;;
11344;SDS011;5727;42.600;23.028;2023-02-21T02:18:07;17.77;;;10.70;;
11344;SDS011;5727;42.600;23.028;2023-02-21T02:33:18;12.50;;;10.03;;
11344;SDS011;5727;42.600;23.028;2023-02-21T02:36:01;15.53;;;10.70;;
11344;SDS011;5727;42.600;23.028;2023-02-21T02:38:32;19.23;;;11.30;;
11344;SDS011;5727;42.600;23.028;2023-02-21T02:41:05;14.87;;;10.50;;
11344;SDS011;5727;42.600;23.028;2023-02-21T02:43:38;11.83;;;9.20;;
11344;SDS011;5727;42.600;23.028;2023-02-21T02:46:12;11.07;;;8.60;;
11344;SDS011;5727;42.600;23.028;2023-02-21T02:48:43;10.00;;;8.47;;
11344;SDS011;5727;42.600;23.028;2023-02-21T02:51:16;12.37;;;9.10;;
11344;SDS011;5727;42.600;23.028;2023-02-21T02:53:43;13.50;;;9.07;;
11344;SDS011;5727;42.600;23.028;2023-02-21T02:56:10;15.90;;;9.47;;
11344;SDS011;5727;42.600;23.028;2023-02-21T02:58:43;11.17;;;9.47;;
11344;SDS011;5727;42.600;23.028;2023-02-21T03:01:21;11.67;;;9.00;;
11344;SDS011;5727;42.600;23.028;2023-02-21T03:04:09;11.77;;;8.70;;
11344;SDS011;5727;42.600;23.028;2023-02-21T03:06:50;9.67;;;8.67;;
11344;SDS011;5727;42.600;23.028;2023-02-21T03:09:24;11.40;;;9.43;;
11344;SDS011;5727;42.600;23.028;2023-02-21T03:11:58;10.33;;;9.17;;
11344;SDS011;5727;42.600;23.028;2023-02-21T03:14:33;10.10;;;8.80;;
11344;SDS011;5727;42.600;23.028;2023-02-21T03:17:05;9.37;;;8.53;;
11344;SDS011;5727;42.600;23.028;2023-02-21T03:19:36;9.77;;;8.77;;
11344;SDS011;5727;42.600;23.028;2023-02-21T03:22:07;10.00;;;8.83;;
11344;SDS011;5727;42.600;23.028;2023-02-21T03:24:39;14.13;;;9.37;;
11344;SDS011;5727;42.600;23.028;2023-02-21T03:27:08;9.47;;;8.53;;
11344;SDS011;5727;42.600;23.028;2023-02-21T03:29:36;9.67;;;8.60;;
11344;SDS011;5727;42.600;23.028;2023-02-21T03:32:05;9.90;;;8.40;;
11344;SDS011;5727;42.600;23.028;2023-02-21T03:34:34;10.20;;;8.87;;
11344;SDS011;5727;42.600;23.028;2023-02-21T03:37:02;12.10;;;9.30;;
11344;SDS011;5727;42.600;23.028;2023-02-21T03:39:31;10.37;;;9.10;;
11344;SDS011;5727;42.600;23.028;2023-02-21T03:41:58;10.07;;;9.03;;
11344;SDS011;5727;42.600;23.028;2023-02-21T03:44:24;10.27;;;8.07;;
11344;SDS011;5727;42.600;23.028;2023-02-21T03:46:51;10.53;;;8.87;;
11344;SDS011;5727;42.600;23.028;2023-02-21T03:49:18;10.33;;;8.07;;
11344;SDS011;5727;42.600;23.028;2023-02-21T03:51:44;8.80;;;7.60;;
11344;SDS011;5727;42.600;23.028;2023-02-21T03:54:11;12.03;;;8.67;;
11344;SDS011;5727;42.600;23.028;2023-02-21T03:56:39;9.00;;;8.07;;
11344;SDS011;5727;42.600;23.028;2023-02-21T03:59:06;9.80;;;8.17;;
11344;SDS011;5727;42.600;23.028;2023-02-21T04:01:32;8.70;;;7.87;;
11344;SDS011;5727;42.600;23.028;2023-02-21T04:03:59;9.63;;;7.77;;
11344;SDS011;5727;42.600;23.028;2023-02-21T04:06:26;8.03;;;7.27;;
11344;SDS011;5727;42.600;23.028;2023-02-21T04:08:52;7.97;;;7.27;;
11344;SDS011;5727;42.600;23.028;2023-02-21T04:11:19;9.00;;;8.00;;
11344;SDS011;5727;42.600;23.028;2023-02-21T04:13:47;9.27;;;7.57;;
11344;SDS011;5727;42.600;23.028;2023-02-21T04:16:14;8.67;;;7.90;;
11344;SDS011;5727;42.600;23.028;2023-02-21T04:18:41;7.70;;;7.10;;
11344;SDS011;5727;42.600;23.028;2023-02-21T04:21:07;9.20;;;7.77;;
11344;SDS011;5727;42.600;23.028;2023-02-21T04:23:34;8.57;;;7.80;;
11344;SDS011;5727;42.600;23.028;2023-02-21T04:26:01;10.53;;;7.30;;
11344;SDS011;5727;42.600;23.028;2023-02-21T04:28:28;8.40;;;7.60;;
11344;SDS011;5727;42.600;23.028;2023-02-21T04:30:56;9.47;;;8.57;;
11344;SDS011;5727;42.600;23.028;2023-02-21T04:33:23;9.67;;;8.20;;
11344;SDS011;5727;42.600;23.028;2023-02-21T04:35:49;10.03;;;9.00;;
11344;SDS011;5727;42.600;23.028;2023-02-21T04:38:16;11.67;;;8.63;;
11344;SDS011;5727;42.600;23.028;2023-02-21T04:40:43;9.57;;;8.27;;
11344;SDS011;5727;42.600;23.028;2023-02-21T04:43:10;9.07;;;8.17;;
11344;SDS011;5727;42.600;23.028;2023-02-21T04:45:36;11.87;;;7.80;;
11344;SDS011;5727;42.600;23.028;2023-02-21T04:48:05;8.33;;;7.40;;
11344;SDS011;5727;42.600;23.028;2023-02-21T04:50:31;8.60;;;7.73;;
11344;SDS011;5727;42.600;23.028;2023-02-21T04:52:58;8.83;;;8.03;;
11344;SDS011;5727;42.600;23.028;2023-02-21T04:55:25;8.67;;;7.90;;
11344;SDS011;5727;42.600;23.028;2023-02-21T04:57:51;10.53;;;8.90;;
11344;SDS011;5727;42.600;23.028;2023-02-21T05:00:18;22.40;;;9.30;;
11344;SDS011;5727;42.600;23.028;2023-02-21T05:02:46;12.13;;;8.20;;
11344;SDS011;5727;42.600;23.028;2023-02-21T05:05:14;12.00;;;9.00;;
11344;SDS011;5727;42.600;23.028;2023-02-21T05:07:41;10.70;;;9.10;;
11344;SDS011;5727;42.600;23.028;2023-02-21T05:10:08;15.73;;;10.60;;
11344;SDS011;5727;42.600;23.028;2023-02-21T05:12:36;17.87;;;11.67;;
11344;SDS011;5727;42.600;23.028;2023-02-21T05:15:04;14.17;;;10.70;;
11344;SDS011;5727;42.600;23.028;2023-02-21T05:17:31;19.23;;;11.90;;
11344;SDS011;5727;42.600;23.028;2023-02-21T05:19:58;20.23;;;13.03;;
11344;SDS011;5727;42.600;23.028;2023-02-21T05:22:27;15.20;;;11.60;;
11344;SDS011;5727;42.600;23.028;2023-02-21T05:24:54;18.80;;;13.17;;
11344;SDS011;5727;42.600;23.028;2023-02-21T05:27:21;18.10;;;13.77;;
11344;SDS011;5727;42.600;23.028;2023-02-21T05:29:48;17.63;;;12.33;;
11344;SDS011;5727;42.600;23.028;2023-02-21T05:32:16;16.27;;;11.23;;
11344;SDS011;5727;42.600;23.028;2023-02-21T05:34:44;14.97;;;11.50;;
11344;SDS011;5727;42.600;23.028;2023-02-21T05:37:12;16.53;;;11.13;;
11344;SDS011;5727;42.600;23.028;2023-02-21T05:39:40;13.30;;;11.00;;
11344;SDS011;5727;42.600;23.028;2023-02-21T05:42:08;13.20;;;10.23;;
11344;SDS011;5727;42.600;23.028;2023-02-21T05:44:34;19.00;;;11.10;;
11344;SDS011;5727;42.600;23.028;2023-02-21T05:47:01;11.83;;;9.90;;
11344;SDS011;5727;42.600;23.028;2023-02-21T05:49:28;12.40;;;10.43;;
11344;SDS011;5727;42.600;23.028;2023-02-21T05:51:55;17.83;;;10.50;;
11344;SDS011;5727;42.600;23.028;2023-02-21T05:54:21;12.83;;;10.27;;
11344;SDS011;5727;42.600;23.028;2023-02-21T05:56:50;13.57;;;11.30;;
11344;SDS011;5727;42.600;23.028;2023-02-21T05:59:18;13.37;;;10.37;;
11344;SDS011;5727;42.600;23.028;2023-02-21T06:01:46;11.23;;;8.90;;
11344;SDS011;5727;42.600;23.028;2023-02-21T06:04:13;12.50;;;8.67;;
11344;SDS011;5727;42.600;23.028;2023-02-21T06:06:40;12.63;;;8.73;;
11344;SDS011;5727;42.600;23.028;2023-02-21T06:09:07;11.57;;;9.70;;
11344;SDS011;5727;42.600;23.028;2023-02-21T06:11:35;18.63;;;12.40;;
11344;SDS011;5727;42.600;23.028;2023-02-21T06:14:06;16.87;;;11.67;;
11344;SDS011;5727;42.600;23.028;2023-02-21T06:16:38;11.33;;;10.20;;
11344;SDS011;5727;42.600;23.028;2023-02-21T06:19:06;13.33;;;11.07;;
11344;SDS011;5727;42.600;23.028;2023-02-21T06:21:35;11.23;;;9.03;;
11344;SDS011;5727;42.600;23.028;2023-02-21T06:24:02;11.67;;;10.30;;
11344;SDS011;5727;42.600;23.028;2023-02-21T06:26:29;19.60;;;10.87;;
11344;SDS011;5727;42.600;23.028;2023-02-21T06:28:56;12.33;;;9.37;;
11344;SDS011;5727;42.600;23.028;2023-02-21T06:31:25;10.07;;;7.93;;
11344;SDS011;5727;42.600;23.028;2023-02-21T06:33:52;14.13;;;8.60;;
11344;SDS011;5727;42.600;23.028;2023-02-21T06:36:19;10.00;;;7.60;;
11344;SDS011;5727;42.600;23.028;2023-02-21T06:38:48;10.30;;;7.53;;
11344;SDS011;5727;42.600;23.028;2023-02-21T06:41:17;10.97;;;7.73;;
11344;SDS011;5727;42.600;23.028;2023-02-21T06:43:48;10.83;;;8.47;;
11344;SDS011;5727;42.600;23.028;2023-02-21T06:46:15;9.67;;;8.03;;
11344;SDS011;5727;42.600;23.028;2023-02-21T06:48:44;11.20;;;8.30;;
11344;SDS011;5727;42.600;23.028;2023-02-21T06:51:11;14.27;;;9.07;;
11344;SDS011;5727;42.600;23.028;2023-02-21T06:53:38;11.23;;;8.47;;
11344;SDS011;5727;42.600;23.028;2023-02-21T06:56:05;13.87;;;10.53;;
11344;SDS011;5727;42.600;23.028;2023-02-21T06:58:33;13.70;;;9.90;;
11344;SDS011;5727;42.600;23.028;2023-02-21T07:00:59;9.67;;;8.27;;
11344;SDS011;5727;42.600;23.028;2023-02-21T07:03:26;8.90;;;8.03;;
11344;SDS011;5727;42.600;23.028;2023-02-21T07:05:56;10.87;;;8.60;;
11344;SDS011;5727;42.600;23.028;2023-02-21T07:08:22;12.27;;;9.10;;
11344;SDS011;5727;42.600;23.028;2023-02-21T07:10:50;12.77;;;8.70;;
11344;SDS011;5727;42.600;23.028;2023-02-21T07:13:17;11.00;;;9.53;;
11344;SDS011;5727;42.600;23.028;2023-02-21T07:15:44;10.70;;;8.37;;
11344;SDS011;5727;42.600;23.028;2023-02-21T07:18:11;9.70;;;7.97;;
11344;SDS011;5727;42.600;23.028;2023-02-21T07:20:38;10.37;;;8.73;;
11344;SDS011;5727;42.600;23.028;2023-02-21T07:23:06;13.70;;;8.57;;
11344;SDS011;5727;42.600;23.028;2023-02-21T07:25:33;14.00;;;8.93;;
11344;SDS011;5727;42.600;23.028;2023-02-21T07:27:59;15.37;;;9.03;;
11344;SDS011;5727;42.600;23.028;2023-02-21T07:30:28;11.33;;;9.00;;
11344;SDS011;5727;42.600;23.028;2023-02-21T07:32:55;12.83;;;8.13;;
11344;SDS011;5727;42.600;23.028;2023-02-21T07:35:22;13.40;;;9.20;;
11344;SDS011;5727;42.600;23.028;2023-02-21T07:37:49;14.47;;;9.10;;
11344;SDS011;5727;42.600;23.028;2023-02-21T07:40:17;13.27;;;7.93;;
11344;SDS011;5727;42.600;23.028;2023-02-21T07:42:44;12.47;;;8.83;;
11344;SDS011;5727;42.600;23.028;2023-02-21T07:45:12;11.00;;;8.60;;
11344;SDS011;5727;42.600;23.028;2023-02-21T07:47:40;10.93;;;8.27;;
11344;SDS011;5727;42.600;23.028;2023-02-21T07:50:08;15.57;;;9.20;;
11344;SDS011;5727;42.600;23.028;2023-02-21T07:52:35;13.77;;;8.43;;
11344;SDS011;5727;42.600;23.028;2023-02-21T07:55:02;13.17;;;8.63;;
11344;SDS011;5727;42.600;23.028;2023-02-21T07:57:30;20.77;;;9.30;;
11344;SDS011;5727;42.600;23.028;2023-02-21T07:59:57;12.10;;;8.67;;
11344;SDS011;5727;42.600;23.028;2023-02-21T08:02:24;14.80;;;9.20;;
11344;SDS011;5727;42.600;23.028;2023-02-21T08:04:51;19.03;;;9.47;;
11344;SDS011;5727;42.600;23.028;2023-02-21T08:07:18;21.70;;;9.90;;
11344;SDS011;5727;42.600;23.028;2023-02-21T08:09:44;17.50;;;9.53;;
11344;SDS011;5727;42.600;23.028;2023-02-21T08:12:12;21.03;;;10.10;;
11344;SDS011;5727;42.600;23.028;2023-02-21T08:14:40;26.20;;;10.50;;
11344;SDS011;5727;42.600;23.028;2023-02-21T08:17:06;14.57;;;10.50;;
11344;SDS011;5727;42.600;23.028;2023-02-21T08:19:33;23.17;;;10.60;;
11344;SDS011;5727;42.600;23.028;2023-02-21T08:22:00;19.67;;;11.37;;
11344;SDS011;5727;42.600;23.028;2023-02-21T08:24:26;21.57;;;12.33;;
11344;SDS011;5727;42.600;23.028;2023-02-21T08:26:53;20.70;;;12.47;;
11344;SDS011;5727;42.600;23.028;2023-02-21T08:29:20;24.63;;;12.43;;
11344;SDS011;5727;42.600;23.028;2023-02-21T08:31:48;21.87;;;12.83;;
11344;SDS011;5727;42.600;23.028;2023-02-21T08:34:15;18.07;;;11.80;;
11344;SDS011;5727;42.600;23.028;2023-02-21T08:36:42;22.63;;;12.67;;
11344;SDS011;5727;42.600;23.028;2023-02-21T08:39:09;19.93;;;12.37;;
11344;SDS011;5727;42.600;23.028;2023-02-21T08:41:36;21.23;;;11.43;;
11344;SDS011;5727;42.600;23.028;2023-02-21T08:44:03;19.10;;;10.93;;
11344;SDS011;5727;42.600;23.028;2023-02-21T08:46:30;21.17;;;12.23;;
11344;SDS011;5727;42.600;23.028;2023-02-21T08:48:59;17.33;;;11.30;;
11344;SDS011;5727;42.600;23.028;2023-02-21T08:51:25;27.37;;;12.53;;
11344;SDS011;5727;42.600;23.028;2023-02-21T08:53:53;23.40;;;13.37;;
11344;SDS011;5727;42.600;23.028;2023-02-21T08:56:20;26.50;;;15.33;;
11344;SDS011;5727;42.600;23.028;2023-02-21T08:58:48;29.97;;;14.80;;
11344;SDS011;5727;42.600;23.028;2023-02-21T09:01:15;26.80;;;13.67;;
11344;SDS011;5727;42.600;23.028;2023-02-21T09:03:42;23.30;;;13.33;;
11344;SDS011;5727;42.600;23.028;2023-02-21T09:06:10;20.40;;;11.73;;
11344;SDS011;5727;42.600;23.028;2023-02-21T09:08:37;23.20;;;11.93;;
11344;SDS011;5727;42.600;23.028;2023-02-21T09:11:04;20.07;;;10.17;;
11344;SDS011;5727;42.600;23.028;2023-02-21T09:13:31;16.70;;;9.60;;
11344;SDS011;5727;42.600;23.028;2023-02-21T09:15:58;16.17;;;9.50;;
11344;SDS011;5727;42.600;23.028;2023-02-21T09:18:26;15.63;;;9.37;;
11344;SDS011;5727;42.600;23.028;2023-02-21T09:20:55;16.27;;;9.57;;
11344;SDS011;5727;42.600;23.028;2023-02-21T09:23:24;12.80;;;9.27;;
11344;SDS011;5727;42.600;23.028;2023-02-21T09:25:53;12.70;;;8.00;;
11344;SDS011;5727;42.600;23.028;2023-02-21T09:28:20;11.70;;;7.40;;
11344;SDS011;5727;42.600;23.028;2023-02-21T09:30:49;11.13;;;7.27;;
11344;SDS011;5727;42.600;23.028;2023-02-21T09:33:19;11.50;;;7.30;;
11344;SDS011;5727;42.600;23.028;2023-02-21T09:35:45;14.90;;;8.93;;
11344;SDS011;5727;42.600;23.028;2023-02-21T09:38:12;17.50;;;7.57;;
11344;SDS011;5727;42.600;23.028;2023-02-21T09:40:41;11.43;;;5.27;;
11344;SDS011;5727;42.600;23.028;2023-02-21T09:43:11;6.67;;;3.90;;
11344;SDS011;5727;42.600;23.028;2023-02-21T09:45:40;3.43;;;2.80;;
11344;SDS011;5727;42.600;23.028;2023-02-21T09:48:08;3.73;;;3.37;;
11344;SDS011;5727;42.600;23.028;2023-02-21T09:50:41;6.50;;;4.60;;
11344;SDS011;5727;42.600;23.028;2023-02-21T09:53:12;5.17;;;4.30;;
11344;SDS011;5727;42.600;23.028;2023-02-21T09:55:43;4.60;;;2.70;;
11344;SDS011;5727;42.600;23.028;2023-02-21T09:58:11;2.70;;;2.50;;
11344;SDS011;5727;42.600;23.028;2023-02-21T10:00:39;2.33;;;2.03;;
11344;SDS011;5727;42.600;23.028;2023-02-21T10:03:10;2.20;;;1.90;;
11344;SDS011;5727;42.600;23.028;2023-02-21T10:05:57;1.90;;;1.80;;
11344;SDS011;5727;42.600;23.028;2023-02-21T10:08:33;2.10;;;1.90;;
11344;SDS011;5727;42.600;23.028;2023-02-21T10:11:14;2.77;;;2.30;;
11344;SDS011;5727;42.600;23.028;2023-02-21T10:13:53;1.83;;;1.40;;
11344;SDS011;5727;42.600;23.028;2023-02-21T10:16:27;1.90;;;1.63;;
11344;SDS011;5727;42.600;23.028;2023-02-21T10:19:00;5.47;;;1.50;;
11344;SDS011;5727;42.600;23.028;2023-02-21T10:21:35;1.80;;;1.70;;
11344;SDS011;5727;42.600;23.028;2023-02-21T10:24:10;1.90;;;1.60;;
11344;SDS011;5727;42.600;23.028;2023-02-21T10:26:39;2.40;;;1.47;;
11344;SDS011;5727;42.600;23.028;2023-02-21T10:29:15;2.17;;;1.70;;
11344;SDS011;5727;42.600;23.028;2023-02-21T10:31:46;1.30;;;1.20;;
11344;SDS011;5727;42.600;23.028;2023-02-21T10:34:19;1.73;;;1.63;;
11344;SDS011;5727;42.600;23.028;2023-02-21T10:36:49;1.43;;;1.33;;
11344;SDS011;5727;42.600;23.028;2023-02-21T10:39:17;2.50;;;1.60;;
11344;SDS011;5727;42.600;23.028;2023-02-21T10:41:48;2.97;;;1.20;;
11344;SDS011;5727;42.600;23.028;2023-02-21T10:44:16;1.60;;;1.50;;
11344;SDS011;5727;42.600;23.028;2023-02-21T10:46:49;2.80;;;1.20;;
11344;SDS011;5727;42.600;23.028;2023-02-21T10:49:24;2.10;;;1.20;;
11344;SDS011;5727;42.600;23.028;2023-02-21T10:52:03;1.63;;;1.53;;
11344;SDS011;5727;42.600;23.028;2023-02-21T10:54:34;3.23;;;1.70;;
11344;SDS011;5727;42.600;23.028;2023-02-21T10:57:03;1.50;;;1.40;;
11344;SDS011;5727;42.600;23.028;2023-02-21T10:59:33;2.40;;;1.30;;
11344;SDS011;5727;42.600;23.028;2023-02-21T11:04:55;6.77;;;2.00;;
11344;SDS011;5727;42.600;23.028;2023-02-21T11:07:34;1.57;;;1.30;;
11344;SDS011;5727;42.600;23.028;2023-02-21T11:10:01;1.80;;;1.30;;
11344;SDS011;5727;42.600;23.028;2023-02-21T11:12:30;1.87;;;1.47;;
11344;SDS011;5727;42.600;23.028;2023-02-21T11:15:16;2.43;;;1.40;;
11344;SDS011;5727;42.600;23.028;2023-02-21T11:17:44;1.27;;;1.17;;
11344;SDS011;5727;42.600;23.028;2023-02-21T11:20:15;3.27;;;1.73;;
11344;SDS011;5727;42.600;23.028;2023-02-21T11:22:45;1.60;;;1.47;;
11344;SDS011;5727;42.600;23.028;2023-02-21T11:25:20;2.63;;;1.30;;
11344;SDS011;5727;42.600;23.028;2023-02-21T11:28:04;2.80;;;1.43;;
11344;SDS011;5727;42.600;23.028;2023-02-21T11:30:44;1.40;;;1.30;;
11344;SDS011;5727;42.600;23.028;2023-02-21T11:33:17;2.13;;;1.70;;
11344;SDS011;5727;42.600;23.028;2023-02-21T11:35:46;1.60;;;1.30;;
11344;SDS011;5727;42.600;23.028;2023-02-21T11:38:31;4.13;;;1.87;;
11344;SDS011;5727;42.600;23.028;2023-02-21T11:41:01;3.00;;;1.40;;
11344;SDS011;5727;42.600;23.028;2023-02-21T11:43:29;2.20;;;1.70;;
11344;SDS011;5727;42.600;23.028;2023-02-21T11:46:11;3.23;;;2.00;;
11344;SDS011;5727;42.600;23.028;2023-02-21T11:48:44;2.57;;;1.97;;
11344;SDS011;5727;42.600;23.028;2023-02-21T11:51:25;3.73;;;1.60;;
11344;SDS011;5727;42.600;23.028;2023-02-21T11:53:56;3.30;;;1.30;;
11344;SDS011;5727;42.600;23.028;2023-02-21T11:56:27;2.23;;;1.53;;
11344;SDS011;5727;42.600;23.028;2023-02-21T11:59:02;1.77;;;1.40;;
11344;SDS011;5727;42.600;23.028;2023-02-21T12:01:39;2.80;;;1.20;;
11344;SDS011;5727;42.600;23.028;2023-02-21T12:04:21;3.20;;;1.57;;
11344;SDS011;5727;42.600;23.028;2023-02-21T12:07:11;2.13;;;1.10;;
11344;SDS011;5727;42.600;23.028;2023-02-21T12:09:44;2.77;;;1.43;;
11344;SDS011;5727;42.600;23.028;2023-02-21T12:12:25;3.27;;;1.10;;
11344;SDS011;5727;42.600;23.028;2023-02-21T12:15:06;2.50;;;1.10;;
11344;SDS011;5727;42.600;23.028;2023-02-21T12:18:04;1.63;;;1.03;;
11344;SDS011;5727;42.600;23.028;2023-02-21T12:23:35;1.10;;;1.00;;
11344;SDS011;5727;42.600;23.028;2023-02-21T12:26:16;2.17;;;1.10;;
11344;SDS011;5727;42.600;23.028;2023-02-21T12:29:01;1.73;;;1.17;;
11344;SDS011;5727;42.600;23.028;2023-02-21T12:31:39;1.07;;;0.80;;
11344;SDS011;5727;42.600;23.028;2023-02-21T12:34:19;1.67;;;1.20;;
11344;SDS011;5727;42.600;23.028;2023-02-21T12:37:09;2.77;;;1.40;;
11344;SDS011;5727;42.600;23.028;2023-02-21T12:39:49;2.13;;;1.57;;
11344;SDS011;5727;42.600;23.028;2023-02-21T12:42:29;2.00;;;1.30;;
11344;SDS011;5727;42.600;23.028;2023-02-21T12:45:14;2.53;;;1.03;;
11344;SDS011;5727;42.600;23.028;2023-02-21T12:47:54;6.43;;;1.10;;
11344;SDS011;5727;42.600;23.028;2023-02-21T12:50:30;2.83;;;0.90;;
11344;SDS011;5727;42.600;23.028;2023-02-21T12:53:01;2.40;;;1.10;;
11344;SDS011;5727;42.600;23.028;2023-02-21T12:55:33;1.40;;;0.80;;
11344;SDS011;5727;42.600;23.028;2023-02-21T12:58:03;1.83;;;0.97;;
11344;SDS011;5727;42.600;23.028;2023-02-21T13:00:37;1.97;;;0.80;;
11344;SDS011;5727;42.600;23.028;2023-02-21T13:03:13;1.43;;;0.90;;
11344;SDS011;5727;42.600;23.028;2023-02-21T13:05:50;2.23;;;0.60;;
11344;SDS011;5727;42.600;23.028;2023-02-21T13:08:23;3.20;;;0.80;;
11344;SDS011;5727;42.600;23.028;2023-02-21T13:10:54;2.90;;;0.63;;
11344;SDS011;5727;42.600;23.028;2023-02-21T13:13:27;2.53;;;0.87;;
11344;SDS011;5727;42.600;23.028;2023-02-21T13:15:56;1.73;;;1.00;;
11344;SDS011;5727;42.600;23.028;2023-02-21T13:18:28;3.17;;;0.90;;
11344;SDS011;5727;42.600;23.028;2023-02-21T13:21:01;2.20;;;0.67;;
11344;SDS011;5727;42.600;23.028;2023-02-21T13:26:53;2.40;;;0.70;;
11344;SDS011;5727;42.600;23.028;2023-02-21T13:29:36;3.05;;;0.80;;
11344;SDS011;5727;42.600;23.028;2023-02-21T13:32:07;3.25;;;0.52;;
11344;SDS011;5727;42.600;23.028;2023-02-21T13:34:36;4.00;;;1.17;;
11344;SDS011;5727;42.600;23.028;2023-02-21T13:37:07;1.33;;;0.50;;
11344;SDS011;5727;42.600;23.028;2023-02-21T13:39:43;2.47;;;0.77;;
11344;SDS011;5727;42.600;23.028;2023-02-21T13:42:16;1.50;;;0.70;;
11344;SDS011;5727;42.600;23.028;2023-02-21T13:44:46;1.37;;;0.60;;
11344;SDS011;5727;42.600;23.028;2023-02-21T13:47:19;1.90;;;0.70;;
11344;SDS011;5727;42.600;23.028;2023-02-21T13:49:57;1.87;;;0.90;;
11344;SDS011;5727;42.600;23.028;2023-02-21T13:52:35;2.10;;;0.87;;
11344;SDS011;5727;42.600;23.028;2023-02-21T13:55:21;4.27;;;0.90;;
11344;SDS011;5727;42.600;23.028;2023-02-21T14:01:17;2.50;;;1.13;;
11344;SDS011;5727;42.600;23.028;2023-02-21T14:07:04;2.80;;;1.20;;
11344;SDS011;5727;42.600;23.028;2023-02-21T14:09:33;2.60;;;1.23;;
11344;SDS011;5727;42.600;23.028;2023-02-21T14:12:01;5.60;;;1.00;;
11344;SDS011;5727;42.600;23.028;2023-02-21T14:14:31;2.77;;;0.83;;
11344;SDS011;5727;42.600;23.028;2023-02-21T14:17:04;1.67;;;0.70;;
11344;SDS011;5727;42.600;23.028;2023-02-21T14:19:34;4.10;;;1.07;;
11344;SDS011;5727;42.600;23.028;2023-02-21T14:22:10;3.33;;;0.97;;
11344;SDS011;5727;42.600;23.028;2023-02-21T14:24:41;3.80;;;0.87;;
11344;SDS011;5727;42.600;23.028;2023-02-21T14:30:23;3.40;;;0.70;;
11344;SDS011;5727;42.600;23.028;2023-02-21T14:32:53;3.70;;;0.80;;
11344;SDS011;5727;42.600;23.028;2023-02-21T14:35:25;1.70;;;0.70;;
11344;SDS011;5727;42.600;23.028;2023-02-21T14:37:59;2.27;;;0.93;;
11344;SDS011;5727;42.600;23.028;2023-02-21T14:40:40;3.00;;;0.50;;
11344;SDS011;5727;42.600;23.028;2023-02-21T14:43:23;1.70;;;0.80;;
11344;SDS011;5727;42.600;23.028;2023-02-21T14:46:11;2.20;;;0.70;;
11344;SDS011;5727;42.600;23.028;2023-02-21T14:49:00;1.90;;;0.80;;
11344;SDS011;5727;42.600;23.028;2023-02-21T14:51:58;3.23;;;1.10;;
11344;SDS011;5727;42.600;23.028;2023-02-21T14:54:47;1.63;;;0.80;;
11344;SDS011;5727;42.600;23.028;2023-02-21T15:00:32;3.67;;;1.10;;
11344;SDS011;5727;42.600;23.028;2023-02-21T15:03:07;5.00;;;0.93;;
11344;SDS011;5727;42.600;23.028;2023-02-21T15:05:41;2.93;;;1.20;;
11344;SDS011;5727;42.600;23.028;2023-02-21T15:08:18;3.27;;;1.00;;
11344;SDS011;5727;42.600;23.028;2023-02-21T15:10:49;3.77;;;1.30;;
11344;SDS011;5727;42.600;23.028;2023-02-21T15:13:21;10.30;;;3.87;;
11344;SDS011;5727;42.600;23.028;2023-02-21T15:15:53;6.73;;;2.70;;
11344;SDS011;5727;42.600;23.028;2023-02-21T15:18:25;7.10;;;2.57;;
11344;SDS011;5727;42.600;23.028;2023-02-21T15:21:04;5.80;;;2.27;;
11344;SDS011;5727;42.600;23.028;2023-02-21T15:23:32;11.97;;;2.90;;
11344;SDS011;5727;42.600;23.028;2023-02-21T15:26:08;8.13;;;2.20;;
11344;SDS011;5727;42.600;23.028;2023-02-21T15:28:42;6.23;;;2.60;;
11344;SDS011;5727;42.600;23.028;2023-02-21T15:31:10;9.40;;;2.80;;
11344;SDS011;5727;42.600;23.028;2023-02-21T15:33:39;6.17;;;2.30;;
11344;SDS011;5727;42.600;23.028;2023-02-21T15:36:08;6.10;;;2.40;;
11344;SDS011;5727;42.600;23.028;2023-02-21T15:38:44;8.87;;;3.20;;
11344;SDS011;5727;42.600;23.028;2023-02-21T15:41:16;13.53;;;5.20;;
11344;SDS011;5727;42.600;23.028;2023-02-21T15:43:52;12.07;;;6.13;;
11344;SDS011;5727;42.600;23.028;2023-02-21T15:46:23;10.77;;;5.80;;
11344;SDS011;5727;42.600;23.028;2023-02-21T15:48:53;14.33;;;7.17;;